createdAt,value
2023-05-18T00:00:49.234Z,36.84
2023-05-18T00:01:49.284Z,40.82
2023-05-18T00:02:49.398Z,41.59
2023-05-18T00:03:49.519Z,36.21
2023-05-18T00:04:49.556Z,41.88
2023-05-18T00:05:49.492Z,40.73
2023-05-18T00:06:49.562Z,41.80
2023-05-18T00:07:49.612Z,43.18
2023-05-18T00:08:49.677Z,44.71
2023-05-18T00:09:49.769Z,39.61
2023-05-18T00:10:49.797Z,42.00
2023-05-18T00:11:49.837Z,45.49
2023-05-18T00:12:49.899Z,43.48
2023-05-18T00:13:49.972Z,42.43
2023-05-18T00:14:50.018Z,42.58
2023-05-18T00:15:50.091Z,43.80
2023-05-18T00:16:50.120Z,46.44
2023-05-18T00:17:50.239Z,45.65
2023-05-18T00:18:50.355Z,44.75
2023-05-18T00:19:50.335Z,43.89
2023-05-18T00:20:50.359Z,42.73
2023-05-18T00:21:50.396Z,45.21
2023-05-18T00:22:50.472Z,43.91
2023-05-18T00:23:50.523Z,41.66
2023-05-18T00:24:50.565Z,43.94
2023-05-18T00:25:50.615Z,41.60
2023-05-18T00:26:50.679Z,37.53
2023-05-18T00:27:50.752Z,38.64
2023-05-18T00:28:50.803Z,41.02
2023-05-18T00:29:50.850Z,36.26
2023-05-18T00:30:50.921Z,34.57
2023-05-18T00:31:50.984Z,38.26
2023-05-18T00:32:51.090Z,35.72
2023-05-18T00:33:51.087Z,38.34
2023-05-18T00:34:51.161Z,38.10
2023-05-18T00:35:51.229Z,39.68
2023-05-18T00:36:51.270Z,36.12
2023-05-18T00:37:51.321Z,38.87
2023-05-18T00:38:51.373Z,34.41
2023-05-18T00:39:51.430Z,35.50
2023-05-18T00:40:51.522Z,33.93
2023-05-18T00:41:51.537Z,34.65
2023-05-18T00:42:51.618Z,38.36
2023-05-18T00:43:51.650Z,36.69
2023-05-18T00:44:51.702Z,37.52
2023-05-18T00:45:51.815Z,41.54
2023-05-18T00:46:51.821Z,36.33
2023-05-18T00:47:51.894Z,36.11
2023-05-18T00:48:51.910Z,35.48
2023-05-18T00:49:51.991Z,34.84
2023-05-18T00:50:52.019Z,35.41
2023-05-18T00:51:52.084Z,34.47
2023-05-18T00:52:52.136Z,35.11
2023-05-18T00:53:52.189Z,35.67
2023-05-18T00:54:52.250Z,38.32
2023-05-18T00:55:52.307Z,38.01
2023-05-18T00:56:52.384Z,37.69
2023-05-18T00:57:52.419Z,36.94
2023-05-18T00:58:52.474Z,33.80
2023-05-18T00:59:52.540Z,36.26
2023-05-18T01:00:52.594Z,34.56
2023-05-18T01:01:52.700Z,38.95
2023-05-18T01:02:53.013Z,40.57
2023-05-18T01:03:52.740Z,42.30
2023-05-18T01:04:52.814Z,43.16
2023-05-18T01:05:52.831Z,44.30
2023-05-18T01:06:52.914Z,40.70
2023-05-18T01:07:52.962Z,41.23
2023-05-18T01:08:52.992Z,39.38
2023-05-18T01:09:53.054Z,41.77
2023-05-18T01:10:53.177Z,42.11
2023-05-18T01:11:53.190Z,42.52
2023-05-18T01:12:53.221Z,45.76
2023-05-18T01:13:53.289Z,46.56
2023-05-18T01:14:53.342Z,44.27
2023-05-18T01:15:53.390Z,45.50
2023-05-18T01:16:53.483Z,44.92
2023-05-18T01:17:53.521Z,45.84
2023-05-18T01:18:53.629Z,39.12
2023-05-18T01:19:53.637Z,44.10
2023-05-18T01:20:53.681Z,43.82
2023-05-18T01:21:53.740Z,45.51
2023-05-18T01:22:53.819Z,43.79
2023-05-18T01:23:53.875Z,40.54
2023-05-18T01:24:53.933Z,39.08
2023-05-18T01:25:54.010Z,41.13
2023-05-18T01:26:54.061Z,40.31
2023-05-18T01:27:54.117Z,36.93
2023-05-18T01:28:54.157Z,37.25
2023-05-18T01:29:54.234Z,40.76
2023-05-18T01:30:54.363Z,37.54
2023-05-18T01:31:54.353Z,37.56
2023-05-18T01:32:54.484Z,39.95
2023-05-18T01:33:54.492Z,45.03
2023-05-18T01:34:54.550Z,44.29
2023-05-18T01:35:54.603Z,40.80
2023-05-18T01:36:54.681Z,40.28
2023-05-18T01:37:54.735Z,40.82
2023-05-18T01:38:54.781Z,44.20
2023-05-18T01:39:54.878Z,36.61
2023-05-18T01:40:54.917Z,42.19
2023-05-18T01:41:54.985Z,40.85
2023-05-18T01:42:55.051Z,40.90
2023-05-18T01:43:55.140Z,43.01
2023-05-18T01:44:55.183Z,44.56
2023-05-18T01:45:55.309Z,45.75
2023-05-18T01:46:55.378Z,47.15
2023-05-18T01:47:55.426Z,46.45
2023-05-18T01:48:55.424Z,46.68
2023-05-18T01:49:55.500Z,46.65
2023-05-18T01:50:55.552Z,47.38
2023-05-18T01:51:55.615Z,49.55
2023-05-18T01:52:55.692Z,49.01
2023-05-18T01:53:55.760Z,48.76
2023-05-18T01:54:55.912Z,51.59
2023-05-18T01:55:55.878Z,51.53
2023-05-18T01:56:55.963Z,52.35
2023-05-18T01:57:55.997Z,52.94
2023-05-18T01:58:56.063Z,53.61
2023-05-18T01:59:56.133Z,54.45
2023-05-18T02:00:56.173Z,51.63
2023-05-18T02:01:59.058Z,53.79
2023-05-18T02:02:56.299Z,56.81
2023-05-18T02:03:56.322Z,53.52
2023-05-18T02:04:56.283Z,53.22
2023-05-18T02:05:56.212Z,54.13
2023-05-18T02:06:56.216Z,52.22
2023-05-18T02:07:56.182Z,52.79
2023-05-18T02:08:56.169Z,53.19
2023-05-18T02:09:56.188Z,50.91
2023-05-18T02:10:56.170Z,54.73
2023-05-18T02:11:56.165Z,54.66
2023-05-18T02:12:56.168Z,53.00
2023-05-18T02:13:56.149Z,53.95
2023-05-18T02:14:56.162Z,51.96
2023-05-18T02:15:56.167Z,49.02
2023-05-18T02:16:56.133Z,52.49
2023-05-18T02:17:56.202Z,55.15
2023-05-18T02:18:56.163Z,54.59
2023-05-18T02:19:56.116Z,55.08
2023-05-18T02:20:56.103Z,55.08
2023-05-18T02:21:56.083Z,54.70
2023-05-18T02:22:56.074Z,53.73
2023-05-18T02:23:56.085Z,54.63
2023-05-18T02:24:56.081Z,52.95
2023-05-18T02:25:56.063Z,53.85
2023-05-18T02:26:56.101Z,54.17
2023-05-18T02:27:56.068Z,54.12
2023-05-18T02:28:56.094Z,54.59
2023-05-18T02:29:56.147Z,55.40
2023-05-18T02:30:56.222Z,53.60
2023-05-18T02:31:56.312Z,50.76
2023-05-18T02:32:56.423Z,54.15
2023-05-18T02:33:56.408Z,54.57
2023-05-18T02:34:56.479Z,55.54
2023-05-18T02:35:56.523Z,53.80
2023-05-18T02:36:56.592Z,52.84
2023-05-18T02:37:56.653Z,49.96
2023-05-18T02:38:56.719Z,52.57
2023-05-18T02:39:56.806Z,54.08
2023-05-18T02:40:56.860Z,56.42
2023-05-18T02:41:56.925Z,54.86
2023-05-18T02:42:56.984Z,55.46
2023-05-18T02:43:57.067Z,52.83
2023-05-18T02:44:57.116Z,54.02
2023-05-18T02:45:57.194Z,57.18
2023-05-18T02:46:57.252Z,54.61
2023-05-18T02:47:57.346Z,55.73
2023-05-18T02:48:57.346Z,56.87
2023-05-18T02:49:57.424Z,54.50
2023-05-18T02:50:57.480Z,56.94
2023-05-18T02:51:57.557Z,57.58
2023-05-18T02:52:57.612Z,56.32
2023-05-18T02:53:57.707Z,58.38
2023-05-18T02:54:57.733Z,57.28
2023-05-18T02:55:57.799Z,56.90
2023-05-18T02:56:57.842Z,54.19
2023-05-18T02:57:57.921Z,53.98
2023-05-18T02:58:58.292Z,57.05
2023-05-18T02:59:58.057Z,59.53
2023-05-18T03:00:58.152Z,61.53
2023-05-18T03:01:58.207Z,59.69
2023-05-18T03:02:58.293Z,58.36
2023-05-18T03:03:58.304Z,60.08
2023-05-18T03:04:58.367Z,61.62
2023-05-18T03:05:58.411Z,60.21
2023-05-18T03:06:58.501Z,61.15
2023-05-18T03:07:58.546Z,62.98
2023-05-18T03:08:58.596Z,60.84
2023-05-18T03:09:58.682Z,61.76
2023-05-18T03:10:58.779Z,62.22
2023-05-18T03:11:58.801Z,61.45
2023-05-18T03:12:58.867Z,58.05
2023-05-18T03:13:58.902Z,60.39
2023-05-18T03:14:58.995Z,59.57
2023-05-18T03:15:59.041Z,60.88
2023-05-18T03:16:59.141Z,66.31
2023-05-18T03:17:59.220Z,66.68
2023-05-18T03:18:59.566Z,65.66
2023-05-18T03:19:59.311Z,64.75
2023-05-18T03:20:59.379Z,64.43
2023-05-18T03:21:59.440Z,62.26
2023-05-18T03:22:59.519Z,61.18
2023-05-18T03:23:59.568Z,63.02
2023-05-18T03:24:59.630Z,61.08
2023-05-18T03:25:59.688Z,64.58
2023-05-18T03:26:59.777Z,64.74
2023-05-18T03:27:59.830Z,66.20
2023-05-18T03:28:59.872Z,64.50
2023-05-18T03:29:59.940Z,66.16
2023-05-18T03:31:00.046Z,64.03
2023-05-18T03:32:00.109Z,66.72
2023-05-18T03:33:00.214Z,66.34
2023-05-18T03:34:00.206Z,64.80
2023-05-18T03:35:00.269Z,61.78
2023-05-18T03:36:00.326Z,64.54
2023-05-18T03:37:00.378Z,62.66
2023-05-18T03:38:00.471Z,60.48
2023-05-18T03:39:00.508Z,63.64
2023-05-18T03:40:00.578Z,65.85
2023-05-18T03:41:00.667Z,65.07
2023-05-18T03:42:00.731Z,65.45
2023-05-18T03:43:00.768Z,68.57
2023-05-18T03:44:00.834Z,67.76
2023-05-18T03:45:00.912Z,68.72
2023-05-18T03:46:01.000Z,68.18
2023-05-18T03:47:01.049Z,68.61
2023-05-18T03:48:01.156Z,69.96
2023-05-18T03:49:01.172Z,70.47
2023-05-18T03:50:01.232Z,69.07
2023-05-18T03:51:01.305Z,70.42
2023-05-18T03:52:01.344Z,70.15
2023-05-18T03:53:01.407Z,69.70
2023-05-18T03:54:01.464Z,73.67
2023-05-18T03:55:01.539Z,74.92
2023-05-18T03:56:01.593Z,74.61
2023-05-18T03:57:01.664Z,73.99
2023-05-18T03:58:01.712Z,73.92
2023-05-18T03:59:01.770Z,73.69
2023-05-18T04:00:01.846Z,77.61
2023-05-18T04:01:01.895Z,75.45
2023-05-18T04:02:01.969Z,73.25
2023-05-18T04:03:02.130Z,75.14
2023-05-18T04:04:02.165Z,72.00
2023-05-18T04:05:02.147Z,73.52
2023-05-18T04:06:02.224Z,75.04
2023-05-18T04:07:02.297Z,74.67
2023-05-18T04:08:02.331Z,77.81
2023-05-18T04:09:02.403Z,74.17
2023-05-18T04:10:02.463Z,76.00
2023-05-18T04:11:02.480Z,73.89
2023-05-18T04:12:02.556Z,76.37
2023-05-18T04:13:02.587Z,76.92
2023-05-18T04:14:02.632Z,75.90
2023-05-18T04:15:02.698Z,75.29
2023-05-18T04:16:02.737Z,78.09
2023-05-18T04:17:02.781Z,79.02
2023-05-18T04:18:02.857Z,76.67
2023-05-18T04:19:05.022Z,75.77
2023-05-18T04:20:02.901Z,75.87
2023-05-18T04:21:02.878Z,76.34
2023-05-18T04:22:02.891Z,77.02
2023-05-18T04:23:02.882Z,79.06
2023-05-18T04:24:02.876Z,79.71
2023-05-18T04:25:02.872Z,80.07
2023-05-18T04:26:02.859Z,79.56
2023-05-18T04:27:02.904Z,79.82
2023-05-18T04:28:02.848Z,79.40
2023-05-18T04:29:02.846Z,80.73
2023-05-18T04:30:02.845Z,78.72
2023-05-18T04:31:02.832Z,77.56
2023-05-18T04:32:02.830Z,79.11
2023-05-18T04:33:02.856Z,81.64
2023-05-18T04:34:02.789Z,78.81
2023-05-18T04:35:02.800Z,81.74
2023-05-18T04:36:02.806Z,81.16
2023-05-18T04:37:02.784Z,79.53
2023-05-18T04:38:02.872Z,83.51
2023-05-18T04:39:02.898Z,82.69
2023-05-18T04:40:02.960Z,85.51
2023-05-18T04:41:03.007Z,83.74
2023-05-18T04:42:03.091Z,83.19
2023-05-18T04:43:03.125Z,81.26
2023-05-18T04:44:03.185Z,81.70
2023-05-18T04:45:03.249Z,81.87
2023-05-18T04:46:03.359Z,79.84
2023-05-18T04:47:03.374Z,83.69
2023-05-18T04:48:03.476Z,84.60
2023-05-18T04:49:03.487Z,83.03
2023-05-18T04:50:03.545Z,84.32
2023-05-18T04:51:03.610Z,84.14
2023-05-18T04:52:03.695Z,81.99
2023-05-18T04:53:03.718Z,79.55
2023-05-18T04:54:03.786Z,85.44
2023-05-18T04:55:03.859Z,83.03
2023-05-18T04:56:03.918Z,81.14
2023-05-18T04:57:03.995Z,80.74
2023-05-18T04:58:04.066Z,80.08
2023-05-18T04:59:04.103Z,79.96
2023-05-18T05:00:04.171Z,76.36
2023-05-18T05:01:04.264Z,78.40
2023-05-18T05:02:04.313Z,77.45
2023-05-18T05:03:04.512Z,76.00
2023-05-18T05:04:04.432Z,76.40
2023-05-18T05:05:04.465Z,77.85
2023-05-18T05:06:04.535Z,77.48
2023-05-18T05:07:04.620Z,78.71
2023-05-18T05:08:04.667Z,79.89
2023-05-18T05:09:04.741Z,80.57
2023-05-18T05:10:04.806Z,75.97
2023-05-18T05:11:04.850Z,75.78
2023-05-18T05:12:04.913Z,75.44
2023-05-18T05:13:04.998Z,77.19
2023-05-18T05:14:05.084Z,77.49
2023-05-18T05:15:05.124Z,77.36
2023-05-18T05:16:05.218Z,78.40
2023-05-18T05:17:05.239Z,78.22
2023-05-18T05:18:05.368Z,78.78
2023-05-18T05:19:05.400Z,78.55
2023-05-18T05:20:05.439Z,81.02
2023-05-18T05:21:05.474Z,76.76
2023-05-18T05:22:05.534Z,71.28
2023-05-18T05:23:05.629Z,72.18
2023-05-18T05:24:05.665Z,67.45
2023-05-18T05:25:06.317Z,70.39
2023-05-18T05:26:05.804Z,69.63
2023-05-18T05:27:05.852Z,63.13
2023-05-18T05:28:05.902Z,56.98
2023-05-18T05:29:05.954Z,56.49
2023-05-18T05:30:06.083Z,65.37
2023-05-18T05:31:06.099Z,59.71
2023-05-18T05:32:06.144Z,54.61
2023-05-18T05:33:06.235Z,54.57
2023-05-18T05:34:06.263Z,58.22
2023-05-18T05:35:06.331Z,62.31
2023-05-18T05:36:06.399Z,59.73
2023-05-18T05:37:06.438Z,60.31
2023-05-18T05:38:06.486Z,55.12
2023-05-18T05:39:06.556Z,49.26
2023-05-18T05:40:06.792Z,45.78
2023-05-18T05:41:06.684Z,43.05
2023-05-18T05:42:06.730Z,49.64
2023-05-18T05:43:06.796Z,52.10
2023-05-18T05:44:06.848Z,49.56
2023-05-18T05:45:06.905Z,44.77
2023-05-18T05:46:06.965Z,45.44
2023-05-18T05:47:07.069Z,42.76
2023-05-18T05:48:07.170Z,48.02
2023-05-18T05:49:07.128Z,44.31
2023-05-18T05:50:07.184Z,47.47
2023-05-18T05:51:07.244Z,44.68
2023-05-18T05:52:07.297Z,36.52
2023-05-18T05:53:07.369Z,37.29
2023-05-18T05:54:08.355Z,29.81
2023-05-18T05:55:07.603Z,29.58
2023-05-18T05:56:07.681Z,24.90
2023-05-18T05:57:07.737Z,25.00
2023-05-18T05:58:07.783Z,25.85
2023-05-18T05:59:07.842Z,27.23
2023-05-18T06:00:07.892Z,26.13
2023-05-18T06:01:07.940Z,29.03
2023-05-18T06:02:08.037Z,29.11
2023-05-18T06:03:08.096Z,27.62
2023-05-18T06:04:08.140Z,27.26
2023-05-18T06:05:08.165Z,26.75
2023-05-18T06:06:08.201Z,30.70
2023-05-18T06:07:08.276Z,27.21
2023-05-18T06:08:08.320Z,29.34
2023-05-18T06:09:08.398Z,26.53
2023-05-18T06:10:08.467Z,25.60
2023-05-18T06:11:10.769Z,29.24
2023-05-18T06:12:08.482Z,28.58
2023-05-18T06:13:08.530Z,33.43
2023-05-18T06:14:08.461Z,35.80
2023-05-18T06:15:08.474Z,37.17
2023-05-18T06:16:08.522Z,41.45
2023-05-18T06:17:08.438Z,36.19
2023-05-18T06:18:08.734Z,40.40
2023-05-18T06:19:08.435Z,70.13
2023-05-18T06:20:08.451Z,70.40
2023-05-18T06:21:08.430Z,65.59
2023-05-18T06:22:08.422Z,65.47
2023-05-18T06:23:08.422Z,71.47
2023-05-18T06:24:08.406Z,75.70
2023-05-18T06:25:08.418Z,84.15
2023-05-18T06:26:08.374Z,92.67
2023-05-18T06:27:08.421Z,97.58
2023-05-18T06:28:08.357Z,101.90
2023-05-18T06:29:08.380Z,104.21
2023-05-18T06:30:08.366Z,105.20
2023-05-18T06:31:08.363Z,110.74
2023-05-18T06:32:08.388Z,113.93
2023-05-18T06:33:08.394Z,114.56
2023-05-18T06:34:08.328Z,114.42
2023-05-18T06:35:08.347Z,114.55
2023-05-18T06:36:08.327Z,116.66
2023-05-18T06:37:08.320Z,116.67
2023-05-18T06:38:08.315Z,117.82
2023-05-18T06:39:08.314Z,117.29
2023-05-18T06:40:08.284Z,118.79
2023-05-18T06:41:08.294Z,119.34
2023-05-18T06:42:08.286Z,120.59
2023-05-18T06:43:08.271Z,119.04
2023-05-18T06:44:08.267Z,117.32
2023-05-18T06:45:08.280Z,117.79
2023-05-18T06:46:08.361Z,115.68
2023-05-18T06:47:08.351Z,112.80
2023-05-18T06:48:08.468Z,112.24
2023-05-18T06:49:08.410Z,109.49
2023-05-18T06:50:08.443Z,105.83
2023-05-18T06:51:08.466Z,105.55
2023-05-18T06:52:08.513Z,102.88
2023-05-18T06:53:08.524Z,97.96
2023-05-18T06:54:08.575Z,96.40
2023-05-18T06:55:08.615Z,96.46
2023-05-18T06:56:08.623Z,97.85
2023-05-18T06:57:08.662Z,98.48
2023-05-18T06:58:08.709Z,103.29
2023-05-18T06:59:08.737Z,103.44
2023-05-18T07:00:08.791Z,103.48
2023-05-18T07:01:08.837Z,103.11
2023-05-18T07:02:08.836Z,105.02
2023-05-18T07:03:08.982Z,106.99
2023-05-18T07:04:08.978Z,103.07
2023-05-18T07:05:08.915Z,105.12
2023-05-18T07:06:08.968Z,107.13
2023-05-18T07:07:08.989Z,109.18
2023-05-18T07:08:09.038Z,109.34
2023-05-18T07:09:09.035Z,109.98
2023-05-18T07:10:09.081Z,111.20
2023-05-18T07:11:09.105Z,110.41
2023-05-18T07:12:09.121Z,108.98
2023-05-18T07:13:09.176Z,112.38
2023-05-18T07:14:09.194Z,112.56
2023-05-18T07:15:09.228Z,113.54
2023-05-18T07:16:09.247Z,115.68
2023-05-18T07:17:09.271Z,114.54
2023-05-18T07:18:09.382Z,112.99
2023-05-18T07:19:09.411Z,111.94
2023-05-18T07:20:09.355Z,113.11
2023-05-18T07:21:09.383Z,114.63
2023-05-18T07:22:09.422Z,116.05
2023-05-18T07:23:09.436Z,115.89
2023-05-18T07:24:09.499Z,114.56
2023-05-18T07:25:09.519Z,115.15
2023-05-18T07:26:09.537Z,116.23
2023-05-18T07:27:09.557Z,115.28
2023-05-18T07:28:09.591Z,115.72
2023-05-18T07:29:09.627Z,117.05
2023-05-18T07:30:09.661Z,116.78
2023-05-18T07:31:09.754Z,116.30
2023-05-18T07:32:09.736Z,113.44
2023-05-18T07:33:09.800Z,113.74
2023-05-18T07:34:09.789Z,113.60
2023-05-18T07:35:09.821Z,113.75
2023-05-18T07:36:09.859Z,115.05
2023-05-18T07:37:09.890Z,112.53
2023-05-18T07:38:09.933Z,115.46
2023-05-18T07:39:09.937Z,114.32
2023-05-18T07:40:09.993Z,114.67
2023-05-18T07:41:10.002Z,114.41
2023-05-18T07:42:10.027Z,111.44
2023-05-18T07:43:10.050Z,113.57
2023-05-18T07:44:10.084Z,114.12
2023-05-18T07:45:10.097Z,114.98
2023-05-18T07:46:10.155Z,108.37
2023-05-18T07:47:10.159Z,105.94
2023-05-18T07:48:10.256Z,105.58
2023-05-18T07:49:10.197Z,103.98
2023-05-18T07:50:10.232Z,105.40
2023-05-18T07:51:10.260Z,102.78
2023-05-18T07:52:10.283Z,108.47
2023-05-18T07:53:10.323Z,109.41
2023-05-18T07:54:10.357Z,110.69
2023-05-18T07:55:10.366Z,106.98
2023-05-18T07:56:10.394Z,107.29
2023-05-18T07:57:10.432Z,105.64
2023-05-18T07:58:10.446Z,106.26
2023-05-18T07:59:10.465Z,106.63
2023-05-18T08:00:10.514Z,110.38
2023-05-18T08:01:10.521Z,115.05
2023-05-18T08:02:10.604Z,114.52
2023-05-18T08:03:10.684Z,113.47
2023-05-18T08:04:10.681Z,113.76
2023-05-18T08:05:10.629Z,114.35
2023-05-18T08:06:10.643Z,115.61
2023-05-18T08:07:10.678Z,110.99
2023-05-18T08:08:10.688Z,110.20
2023-05-18T08:09:10.692Z,112.01
2023-05-18T08:10:10.715Z,111.81
2023-05-18T08:11:10.753Z,110.64
2023-05-18T08:12:10.760Z,109.88
2023-05-18T08:13:10.780Z,113.07
2023-05-18T08:14:10.823Z,115.23
2023-05-18T08:15:10.855Z,114.46
2023-05-18T08:16:12.263Z,112.96
2023-05-18T08:17:10.957Z,109.53
2023-05-18T08:18:10.946Z,107.00
2023-05-18T08:19:11.031Z,105.20
2023-05-18T08:20:10.953Z,106.51
2023-05-18T08:21:10.988Z,107.59
2023-05-18T08:22:10.987Z,105.58
2023-05-18T08:23:11.030Z,105.88
2023-05-18T08:24:11.035Z,103.81
2023-05-18T08:25:11.079Z,105.66
2023-05-18T08:26:13.228Z,103.93
2023-05-18T08:27:11.084Z,106.21
2023-05-18T08:28:11.060Z,104.62
2023-05-18T08:29:11.067Z,103.21
2023-05-18T08:30:11.072Z,101.56
2023-05-18T08:31:11.055Z,97.38
2023-05-18T08:32:11.064Z,94.55
2023-05-18T08:33:11.109Z,93.19
2023-05-18T08:34:11.037Z,88.44
2023-05-18T08:35:11.028Z,85.05
2023-05-18T08:36:11.009Z,86.54
2023-05-18T08:37:11.014Z,86.80
2023-05-18T08:38:11.004Z,85.75
2023-05-18T08:39:10.995Z,86.27
2023-05-18T08:40:10.997Z,80.26
2023-05-18T08:41:10.982Z,82.23
2023-05-18T08:42:10.982Z,79.77
2023-05-18T08:43:10.957Z,82.30
2023-05-18T08:44:10.949Z,77.17
2023-05-18T08:45:10.964Z,78.64
2023-05-18T08:46:10.937Z,76.77
2023-05-18T08:47:10.935Z,71.31
2023-05-18T08:48:11.044Z,70.34
2023-05-18T08:49:11.047Z,68.81
2023-05-18T08:50:10.905Z,68.19
2023-05-18T08:51:10.986Z,67.83
2023-05-18T08:52:10.897Z,64.34
2023-05-18T08:53:10.888Z,61.09
2023-05-18T08:54:10.876Z,61.75
2023-05-18T08:55:12.334Z,63.79
2023-05-18T08:56:10.877Z,62.78
2023-05-18T08:57:10.859Z,62.96
2023-05-18T08:58:10.867Z,64.11
2023-05-18T08:59:10.851Z,64.02
2023-05-18T09:00:10.852Z,66.26
2023-05-18T09:01:10.861Z,65.53
2023-05-18T09:02:10.924Z,62.73
2023-05-18T09:03:10.844Z,64.18
2023-05-18T09:04:10.821Z,63.11
2023-05-18T09:05:10.882Z,56.38
2023-05-18T09:06:10.809Z,54.92
2023-05-18T09:07:10.807Z,56.37
2023-05-18T09:08:10.771Z,60.07
2023-05-18T09:09:10.783Z,54.17
2023-05-18T09:10:10.764Z,56.31
2023-05-18T09:11:10.770Z,51.53
2023-05-18T09:12:10.767Z,48.93
2023-05-18T09:13:10.755Z,50.72
2023-05-18T09:14:10.756Z,54.51
2023-05-18T09:15:10.747Z,45.42
2023-05-18T09:16:10.798Z,49.86
2023-05-18T09:17:10.737Z,51.54
2023-05-18T09:18:10.742Z,49.47
2023-05-18T09:19:10.769Z,46.79
2023-05-18T09:20:10.718Z,48.71
2023-05-18T09:21:10.703Z,48.45
2023-05-18T09:22:10.685Z,47.45
2023-05-18T09:23:10.675Z,48.34
2023-05-18T09:24:10.687Z,48.40
2023-05-18T09:25:10.746Z,46.34
2023-05-18T09:26:10.671Z,49.33
2023-05-18T09:27:10.674Z,47.75
2023-05-18T09:28:10.701Z,47.22
2023-05-18T09:29:10.707Z,46.88
2023-05-18T09:30:10.746Z,46.97
2023-05-18T09:31:10.765Z,47.19
2023-05-18T09:32:10.773Z,48.15
2023-05-18T09:33:10.890Z,46.98
2023-05-18T09:34:10.906Z,48.55
2023-05-18T09:35:10.872Z,44.32
2023-05-18T09:36:10.887Z,48.28
2023-05-18T09:37:10.891Z,47.22
2023-05-18T09:38:10.903Z,47.15
2023-05-18T09:39:10.943Z,48.51
2023-05-18T09:40:10.980Z,49.14
2023-05-18T09:41:10.997Z,46.58
2023-05-18T09:42:11.024Z,44.55
2023-05-18T09:43:11.018Z,43.20
2023-05-18T09:44:11.058Z,47.24
2023-05-18T09:45:11.072Z,47.47
2023-05-18T09:46:11.094Z,46.01
2023-05-18T09:47:11.159Z,41.31
2023-05-18T09:48:11.174Z,39.01
2023-05-18T09:49:11.162Z,38.33
2023-05-18T09:50:11.179Z,38.42
2023-05-18T09:51:11.196Z,36.91
2023-05-18T09:52:11.226Z,35.10
2023-05-18T09:53:11.233Z,38.40
2023-05-18T09:54:11.271Z,37.61
2023-05-18T09:55:11.289Z,37.74
2023-05-18T09:56:11.329Z,39.99
2023-05-18T09:57:11.632Z,39.71
2023-05-18T09:58:11.341Z,39.23
2023-05-18T09:59:11.358Z,37.43
2023-05-18T10:00:11.367Z,38.04
2023-05-18T10:01:11.446Z,39.03
2023-05-18T10:02:11.410Z,38.29
2023-05-18T10:03:11.428Z,38.03
2023-05-18T10:04:11.511Z,36.96
2023-05-18T10:05:11.481Z,36.75
2023-05-18T10:06:11.505Z,36.10
2023-05-18T10:07:11.528Z,32.45
2023-05-18T10:08:11.533Z,34.43
2023-05-18T10:09:11.559Z,35.99
2023-05-18T10:10:11.587Z,38.29
2023-05-18T10:11:11.577Z,38.01
2023-05-18T10:12:11.608Z,39.74
2023-05-18T10:13:11.614Z,36.98
2023-05-18T10:14:11.657Z,35.39
2023-05-18T10:15:11.652Z,35.00
2023-05-18T10:16:11.687Z,32.18
2023-05-18T10:17:15.478Z,31.69
2023-05-18T10:18:11.724Z,31.74
2023-05-18T10:19:11.758Z,32.10
2023-05-18T10:20:11.688Z,32.56
2023-05-18T10:21:11.685Z,34.52
2023-05-18T10:22:11.656Z,36.30
2023-05-18T10:23:11.662Z,35.67
2023-05-18T10:24:11.642Z,40.96
2023-05-18T10:25:11.667Z,40.34
2023-05-18T10:26:11.651Z,40.87
2023-05-18T10:27:11.655Z,38.12
2023-05-18T10:28:11.640Z,36.72
2023-05-18T10:29:11.612Z,33.54
2023-05-18T10:30:11.600Z,31.39
2023-05-18T10:31:11.834Z,34.06
2023-05-18T10:32:11.580Z,32.43
2023-05-18T10:33:24.497Z,29.59
2023-05-18T10:34:12.590Z,29.75
2023-05-18T10:35:11.570Z,30.09
2023-05-18T10:36:11.574Z,31.51
2023-05-18T10:37:12.178Z,34.03
2023-05-18T10:38:11.574Z,38.14
2023-05-18T10:39:11.532Z,35.72
2023-05-18T10:40:11.539Z,36.77
2023-05-18T10:41:11.536Z,40.31
2023-05-18T10:42:11.528Z,39.45
2023-05-18T10:43:11.635Z,39.92
2023-05-18T10:44:11.513Z,40.22
2023-05-18T10:45:11.521Z,36.58
2023-05-18T10:46:11.553Z,32.43
2023-05-18T10:47:11.741Z,32.48
2023-05-18T10:48:11.493Z,33.59
2023-05-18T10:49:11.484Z,31.68
2023-05-18T10:50:11.484Z,32.69
2023-05-18T10:51:11.470Z,29.94
2023-05-18T10:52:11.490Z,29.35
2023-05-18T10:53:11.468Z,24.08
2023-05-18T10:54:11.461Z,28.93
2023-05-18T10:55:11.467Z,26.45
2023-05-18T10:56:11.453Z,25.41
2023-05-18T10:57:11.434Z,26.40
2023-05-18T10:58:11.460Z,25.02
2023-05-18T10:59:11.466Z,26.61
2023-05-18T11:00:11.483Z,25.62
2023-05-18T11:01:11.621Z,26.72
2023-05-18T11:02:11.640Z,25.88
2023-05-18T11:03:11.606Z,26.34
2023-05-18T11:04:11.893Z,25.00
2023-05-18T11:05:11.614Z,25.35
2023-05-18T11:06:11.594Z,26.22
2023-05-18T11:07:11.599Z,26.07
2023-05-18T11:08:11.607Z,25.00
2023-05-18T11:09:11.631Z,27.99
2023-05-18T11:10:11.689Z,28.77
2023-05-18T11:11:11.668Z,29.45
2023-05-18T11:12:11.657Z,26.78
2023-05-18T11:13:11.675Z,27.45
2023-05-18T11:14:11.687Z,31.49
2023-05-18T11:15:11.735Z,29.16
2023-05-18T11:16:11.764Z,29.21
2023-05-18T11:17:11.743Z,25.00
2023-05-18T11:18:11.825Z,26.92
2023-05-18T11:19:11.829Z,28.02
2023-05-18T11:20:11.848Z,26.38
2023-05-18T11:21:11.825Z,28.41
2023-05-18T11:22:11.842Z,30.32
2023-05-18T11:23:11.845Z,30.99
2023-05-18T11:24:11.848Z,31.64
2023-05-18T11:25:11.871Z,29.17
2023-05-18T11:26:11.900Z,29.04
2023-05-18T11:27:11.896Z,28.77
2023-05-18T11:28:11.904Z,31.75
2023-05-18T11:29:11.917Z,28.85
2023-05-18T11:30:54.875Z,25.00
2023-05-18T11:31:54.901Z,25.00
2023-05-18T11:32:55.030Z,25.00
2023-05-18T11:33:54.851Z,25.00
2023-05-18T11:34:54.827Z,25.00
2023-05-18T11:35:54.830Z,26.79
2023-05-18T11:36:54.825Z,32.52
2023-05-18T11:37:54.818Z,30.11
2023-05-18T11:38:54.834Z,34.10
2023-05-18T11:39:59.396Z,37.49
2023-05-18T11:40:55.805Z,37.96
2023-05-18T11:41:54.792Z,39.20
2023-05-18T11:42:54.766Z,41.84
2023-05-18T11:43:54.765Z,46.74
2023-05-18T11:44:54.748Z,54.91
2023-05-18T11:45:55.737Z,52.55
2023-05-18T11:46:54.956Z,47.93
2023-05-18T11:47:54.961Z,41.53
2023-05-18T11:48:54.966Z,47.26
2023-05-18T11:49:54.921Z,48.41
2023-05-18T11:50:54.951Z,38.49
2023-05-18T11:51:57.148Z,42.01
2023-05-18T11:52:54.944Z,48.51
2023-05-18T11:53:54.934Z,46.10
2023-05-18T11:54:54.930Z,48.72
2023-05-18T11:55:54.929Z,48.72
2023-05-18T11:56:54.906Z,38.70
2023-05-18T11:57:54.920Z,41.46
2023-05-18T11:58:54.920Z,44.32
2023-05-18T11:59:54.879Z,40.03
2023-05-18T12:00:54.898Z,39.33
2023-05-18T12:01:54.889Z,32.01
2023-05-18T12:02:54.991Z,41.99
2023-05-18T12:03:54.914Z,42.61
2023-05-18T12:04:54.861Z,46.24
2023-05-18T12:05:54.858Z,44.44
2023-05-18T12:06:54.838Z,49.18
2023-05-18T12:07:54.904Z,48.82
2023-05-18T12:08:54.829Z,49.22
2023-05-18T12:09:54.808Z,38.35
2023-05-18T12:10:54.819Z,44.88
2023-05-18T12:11:54.793Z,40.88
2023-05-18T12:12:54.802Z,51.40
2023-05-18T12:13:54.787Z,52.86
2023-05-18T12:14:54.798Z,51.25
2023-05-18T12:15:55.185Z,48.71
2023-05-18T12:16:54.793Z,44.58
2023-05-18T12:17:54.818Z,25.12
2023-05-18T12:18:54.765Z,29.74
2023-05-18T12:19:54.739Z,35.00
2023-05-18T12:20:54.728Z,47.74
2023-05-18T12:21:55.620Z,38.20
2023-05-18T12:22:54.759Z,37.84
2023-05-18T12:23:54.719Z,47.69
2023-05-18T12:24:54.695Z,63.57
2023-05-18T12:25:54.710Z,72.20
2023-05-18T12:26:54.706Z,74.73
2023-05-18T12:27:54.699Z,74.40
2023-05-18T12:28:54.683Z,82.31
2023-05-18T12:29:54.727Z,84.80
2023-05-18T12:30:54.802Z,87.91
2023-05-18T12:31:54.697Z,82.93
2023-05-18T12:32:54.694Z,82.43
2023-05-18T12:33:56.083Z,77.99
2023-05-18T12:34:54.629Z,66.05
2023-05-18T12:35:54.624Z,78.91
2023-05-18T12:36:54.630Z,76.76
2023-05-18T12:37:54.608Z,75.03
2023-05-18T12:38:54.606Z,78.23
2023-05-18T12:39:54.601Z,82.96
2023-05-18T12:40:54.597Z,76.35
2023-05-18T12:41:54.595Z,68.03
2023-05-18T12:42:54.601Z,55.83
2023-05-18T12:43:54.556Z,65.35
2023-05-18T12:44:54.561Z,70.26
2023-05-18T12:45:54.620Z,71.13
2023-05-18T12:46:54.638Z,69.70
2023-05-18T12:47:54.910Z,71.99
2023-05-18T12:48:54.546Z,77.38
2023-05-18T12:49:54.517Z,79.39